createdAt,value
2022-08-07T00:02:36.291Z,100241.38
2022-08-07T00:05:00.599Z,100244.13
2022-08-07T00:07:40.292Z,100249.38
2022-08-07T00:10:26.944Z,100252.03
2022-08-07T00:13:00.334Z,100241.63
2022-08-07T00:15:38.619Z,100240.75
2022-08-07T00:18:19.412Z,100231.31
2022-08-07T00:20:50.305Z,100232.25
2022-08-07T00:23:21.435Z,100224.34
2022-08-07T00:25:52.093Z,100228.91
2022-08-07T00:28:33.502Z,100228.13
2022-08-07T00:31:12.249Z,100228.22
2022-08-07T00:33:42.360Z,100229.22
2022-08-07T00:36:11.101Z,100228.34
2022-08-07T00:38:42.012Z,100218.78
2022-08-07T00:41:14.718Z,100219.50
2022-08-07T00:44:00.579Z,100221.25
2022-08-07T00:46:32.910Z,100217.66
2022-08-07T00:49:02.904Z,100219.44
2022-08-07T00:51:56.691Z,100219.66
2022-08-07T00:54:22.672Z,100219.84
2022-08-07T00:56:52.407Z,100210.09
2022-08-07T00:59:32.657Z,100212.50
2022-08-07T01:02:06.267Z,100203.81
2022-08-07T01:04:43.982Z,100207.31
2022-08-07T01:07:13.368Z,100204.59
2022-08-07T01:10:07.126Z,100193.97
2022-08-07T01:12:32.950Z,100193.28
2022-08-07T01:15:03.875Z,100186.50
2022-08-07T01:17:34.311Z,100197.19
2022-08-07T01:20:09.242Z,100190.31
2022-08-07T01:22:47.045Z,100184.16
2022-08-07T01:25:53.742Z,100186.69
2022-08-07T01:28:16.441Z,100184.84
2022-08-07T01:30:46.371Z,100182.34
2022-08-07T01:33:16.696Z,100178.91
2022-08-07T01:35:54.193Z,100188.59
2022-08-07T01:38:36.984Z,100184.31
2022-08-07T01:41:26.139Z,100197.44
2022-08-07T01:43:58.449Z,100191.47
2022-08-07T01:46:28.135Z,100193.31
2022-08-07T01:49:00.097Z,100192.56
2022-08-07T01:52:02.301Z,100196.91
2022-08-07T01:54:33.287Z,100198.59
2022-08-07T01:57:20.693Z,100195.88
2022-08-07T01:59:58.278Z,100196.81
2022-08-07T02:03:11.466Z,100190.66
2022-08-07T02:05:42.957Z,100196.84
2022-08-07T02:08:21.878Z,100200.41
2022-08-07T02:10:58.565Z,100196.00
2022-08-07T02:13:57.841Z,100189.94
2022-08-07T02:16:33.057Z,100194.34
2022-08-07T02:19:05.712Z,100188.19
2022-08-07T02:21:58.529Z,100197.13
2022-08-07T02:24:30.103Z,100202.44
2022-08-07T02:27:03.576Z,100195.34
2022-08-07T02:29:36.903Z,100194.56
2022-08-07T02:32:23.208Z,100192.88
2022-08-07T02:34:53.280Z,100188.50
2022-08-07T02:37:27.730Z,100191.09
2022-08-07T02:40:29.788Z,100189.38
2022-08-07T02:43:00.818Z,100188.41
2022-08-07T02:46:00.219Z,100189.31
2022-08-07T02:48:21.605Z,100176.13
2022-08-07T02:50:55.284Z,100171.75
2022-08-07T02:53:38.322Z,100179.66
2022-08-07T02:56:21.185Z,100184.97
2022-08-07T02:58:55.385Z,100174.50
2022-08-07T03:01:35.979Z,100171.09
2022-08-07T03:04:14.684Z,100172.81
2022-08-07T03:06:48.169Z,100166.78
2022-08-07T03:09:42.434Z,100165.88
2022-08-07T03:12:21.816Z,100175.56
2022-08-07T03:15:02.432Z,100164.13
2022-08-07T03:17:53.667Z,100171.13
2022-08-07T03:20:25.189Z,100175.63
2022-08-07T03:22:55.975Z,100172.16
2022-08-07T03:25:32.450Z,100183.59
2022-08-07T03:28:38.173Z,100174.88
2022-08-07T03:31:42.074Z,100176.63
2022-08-07T03:34:18.611Z,100166.84
2022-08-07T03:36:54.181Z,100164.25
2022-08-07T03:39:46.288Z,100158.16
2022-08-07T03:42:18.306Z,100158.19
2022-08-07T03:44:57.859Z,100164.31
2022-08-07T03:47:48.222Z,100159.00
2022-08-07T03:50:23.282Z,100171.31
2022-08-07T03:52:55.281Z,100166.00
2022-08-07T03:55:24.404Z,100161.63
2022-08-07T03:59:05.486Z,100164.25
2022-08-07T04:01:04.623Z,100161.63
2022-08-07T04:03:49.592Z,100159.94
2022-08-07T04:06:36.200Z,100159.09
2022-08-07T04:09:05.748Z,100166.16
2022-08-07T04:12:24.031Z,100156.47
2022-08-07T04:14:38.401Z,100161.72
2022-08-07T04:17:20.401Z,100163.44
2022-08-07T04:19:55.035Z,100162.63
2022-08-07T04:22:29.648Z,100162.63
2022-08-07T04:25:02.640Z,100159.16
2022-08-07T04:27:35.972Z,100159.09
2022-08-07T04:30:21.519Z,100157.28
2022-08-07T04:33:08.589Z,100148.41
2022-08-07T04:35:41.768Z,100153.69
2022-08-07T04:38:14.943Z,100152.78
2022-08-07T04:40:52.986Z,100155.41
2022-08-07T04:44:10.266Z,100167.53
2022-08-07T04:46:36.000Z,100171.94
2022-08-07T04:49:37.738Z,100173.66
2022-08-07T04:52:15.655Z,100170.19
2022-08-07T04:54:58.113Z,100172.75
2022-08-07T04:58:10.081Z,100171.75
2022-08-07T05:00:32.501Z,100173.47
2022-08-07T05:03:16.875Z,100166.44
2022-08-07T05:06:19.510Z,100177.72
2022-08-07T05:09:02.139Z,100172.28
2022-08-07T05:11:58.704Z,100177.38
2022-08-07T05:14:52.167Z,100182.44
2022-08-07T05:17:51.742Z,100176.06
2022-08-07T05:20:23.861Z,100178.59
2022-08-07T05:22:57.856Z,100180.22
2022-08-07T05:26:10.938Z,100166.66
2022-08-07T05:28:23.069Z,100176.22
2022-08-07T05:30:59.487Z,100180.50
2022-08-07T05:33:30.700Z,100181.34
2022-08-07T05:36:08.084Z,100177.72
2022-08-07T05:38:59.663Z,100177.66
2022-08-07T05:42:01.779Z,100182.78
2022-08-07T05:44:29.636Z,100182.72
2022-08-07T05:47:01.227Z,100190.28
2022-08-07T05:49:40.849Z,100188.22
2022-08-07T05:52:11.800Z,100193.03
2022-08-07T05:54:53.371Z,100192.56
2022-08-07T05:57:29.849Z,100194.28
2022-08-07T06:00:01.591Z,100188.13
2022-08-07T06:02:42.568Z,100179.97
2022-08-07T06:05:18.221Z,100180.69
2022-08-07T06:08:13.682Z,100178.28
2022-08-07T06:10:42.976Z,100174.41
2022-08-07T06:13:15.525Z,100176.59
2022-08-07T06:15:46.727Z,100176.91
2022-08-07T06:18:24.955Z,100181.66
2022-08-07T06:22:15.936Z,100176.97
2022-08-07T06:24:46.199Z,100182.63
2022-08-07T06:26:35.219Z,100174.41
2022-08-07T06:29:06.523Z,100176.72
2022-08-07T06:31:46.624Z,100165.91
2022-08-07T06:34:20.824Z,100168.59
2022-08-07T06:36:51.824Z,100169.31
2022-08-07T06:40:17.475Z,100163.00
2022-08-07T06:42:19.173Z,100166.84
2022-08-07T06:45:17.986Z,100168.75
2022-08-07T06:47:58.539Z,100168.66
2022-08-07T06:50:35.992Z,100164.28
2022-08-07T06:53:49.192Z,100154.47
2022-08-07T06:56:01.442Z,100156.75
2022-08-07T06:58:35.328Z,100161.72
2022-08-07T07:01:16.459Z,100160.78
2022-08-07T07:03:48.129Z,100164.19
2022-08-07T07:06:23.870Z,100167.22
2022-08-07T07:08:54.874Z,100163.84
2022-08-07T07:12:07.724Z,100163.25
2022-08-07T07:14:17.392Z,100165.69
2022-08-07T07:16:53.589Z,100160.28
2022-08-07T07:19:57.086Z,100157.81
2022-08-07T07:22:36.590Z,100161.16
2022-08-07T07:26:30.758Z,100163.09
2022-08-07T07:28:07.561Z,100172.09
2022-08-07T07:30:58.482Z,100160.25
2022-08-07T07:33:31.434Z,100159.81
2022-08-07T07:36:05.535Z,100162.69
2022-08-07T07:38:43.574Z,100161.81
2022-08-07T07:41:17.535Z,100156.56
2022-08-07T07:44:13.920Z,100163.16
2022-08-07T07:46:54.684Z,100153.47
2022-08-07T07:50:36.410Z,100151.03
2022-08-07T07:52:27.561Z,100150.91
2022-08-07T07:55:21.964Z,100149.34
2022-08-07T07:57:54.183Z,100144.91
2022-08-07T08:00:43.353Z,100146.88
2022-08-07T08:04:09.966Z,100142.31
2022-08-07T08:06:24.407Z,100146.22
2022-08-07T08:08:54.340Z,100145.31
2022-08-07T08:11:59.319Z,100139.91
2022-08-07T08:14:26.238Z,100146.19
2022-08-07T08:16:57.150Z,100144.50
2022-08-07T08:20:18.824Z,100141.53
2022-08-07T08:23:02.571Z,100140.66
2022-08-07T08:25:52.463Z,100140.63
2022-08-07T08:28:38.148Z,100142.22
2022-08-07T08:31:30.025Z,100137.66
2022-08-07T08:34:10.632Z,100134.22
2022-08-07T08:36:57.891Z,100139.41
2022-08-07T08:39:39.667Z,100130.13
2022-08-07T08:42:27.006Z,100132.19
2022-08-07T08:45:06.569Z,100121.78
2022-08-07T08:48:13.966Z,100129.38
2022-08-07T08:50:51.623Z,100116.84
2022-08-07T08:53:38.142Z,100127.41
2022-08-07T08:56:12.629Z,100131.53
2022-08-07T08:58:54.554Z,100110.84
2022-08-07T09:01:58.484Z,100115.22
2022-08-07T09:04:39.498Z,100118.34
2022-08-07T09:07:15.460Z,100114.91
2022-08-07T09:09:59.653Z,100123.13
2022-08-07T09:12:57.873Z,100118.28
2022-08-07T09:16:25.844Z,100117.63
2022-08-07T09:19:07.063Z,100124.44
2022-08-07T09:24:31.147Z,100114.47
2022-08-07T09:25:25.702Z,100119.72
2022-08-07T09:28:03.267Z,100124.13
2022-08-07T09:30:57.712Z,100114.56
2022-08-07T09:33:57.580Z,100114.69
2022-08-07T09:37:01.045Z,100097.13
2022-08-07T09:39:54.475Z,100109.13
2022-08-07T09:42:43.332Z,100109.56
2022-08-07T09:47:25.317Z,100090.75
2022-08-07T09:50:02.070Z,100081.47
2022-08-07T09:52:16.044Z,100093.63
2022-08-07T09:54:47.119Z,100089.34
2022-08-07T09:58:03.437Z,100094.06
2022-08-07T10:00:50.566Z,100091.47
2022-08-07T10:04:03.606Z,100092.19
2022-08-07T10:06:55.851Z,100081.75
2022-08-07T10:10:00.739Z,100085.38
2022-08-07T10:13:29.743Z,100081.34
2022-08-07T10:16:19.176Z,100077.88
2022-08-07T10:19:38.505Z,100084.63
2022-08-07T10:22:36.809Z,100078.97
2022-08-07T10:25:22.871Z,100069.22
2022-08-07T10:28:27.872Z,100082.59
2022-08-07T10:31:45.314Z,100071.75
2022-08-07T10:34:31.850Z,100072.69
2022-08-07T10:38:00.559Z,100071.22
2022-08-07T10:40:34.075Z,100066.06
2022-08-07T10:43:11.360Z,100076.66
2022-08-07T10:45:57.616Z,100068.00
2022-08-07T10:48:41.466Z,100056.88
2022-08-07T10:51:39.485Z,100062.78
2022-08-07T10:54:17.386Z,100057.63
2022-08-07T10:56:55.870Z,100063.31
2022-08-07T10:59:47.513Z,100055.44
2022-08-07T11:02:33.185Z,100052.78
2022-08-07T11:05:35.743Z,100048.47
2022-08-07T11:08:30.205Z,100029.75
2022-08-07T11:11:37.680Z,100030.97
2022-08-07T11:14:45.535Z,100026.22
2022-08-07T11:17:23.420Z,100030.94
2022-08-07T11:20:19.545Z,100021.00
2022-08-07T11:23:01.796Z,100021.00
2022-08-07T11:26:06.341Z,100017.31
2022-08-07T11:28:37.014Z,100008.81
2022-08-07T11:31:25.922Z,100019.47
2022-08-07T11:34:00.209Z,100032.03
2022-08-07T11:36:57.033Z,100020.13
2022-08-07T11:40:00.233Z,100013.22
2022-08-07T11:42:45.987Z,100002.28
2022-08-07T11:45:35.435Z,99996.63
2022-08-07T11:48:44.169Z,100004.22
2022-08-07T11:51:46.588Z,100006.09
2022-08-07T11:55:18.984Z,100009.34
2022-08-07T11:58:33.593Z,100007.06
2022-08-07T12:01:08.388Z,100009.03
2022-08-07T12:03:58.900Z,100003.16
2022-08-07T12:06:39.110Z,100002.72
2022-08-07T12:09:16.449Z,99999.25
2022-08-07T12:12:12.157Z,99998.34
2022-08-07T12:14:55.576Z,99992.31
2022-08-07T12:17:58.801Z,99997.34
2022-08-07T12:20:32.352Z,99991.38
2022-08-07T12:24:05.052Z,99990.06
2022-08-07T12:29:04.488Z,99991.38
2022-08-07T12:31:53.315Z,99988.09
2022-08-07T12:34:55.785Z,99988.03
2022-08-07T12:37:28.440Z,99988.44
2022-08-07T12:40:44.129Z,99977.53
2022-08-07T12:43:09.933Z,99975.66
2022-08-07T12:45:52.271Z,99975.56
2022-08-07T12:48:52.109Z,99981.81
2022-08-07T12:51:46.692Z,99979.88
2022-08-07T12:54:37.791Z,99975.50
2022-08-07T12:57:09.797Z,99972.22
2022-08-07T12:59:55.273Z,99975.78
2022-08-07T13:02:43.374Z,99969.59
2022-08-07T13:06:02.925Z,99962.31
2022-08-07T13:08:27.479Z,99970.47
2022-08-07T13:11:04.016Z,99964.97
2022-08-07T13:13:50.099Z,99961.22
2022-08-07T13:16:36.789Z,99954.72
2022-08-07T13:19:45.970Z,99954.03
2022-08-07T13:22:27.570Z,99951.38
2022-08-07T13:25:09.959Z,99943.13
2022-08-07T13:28:11.077Z,99943.13
2022-08-07T13:30:52.303Z,99942.19
2022-08-07T13:34:30.190Z,99936.72
2022-08-07T13:36:40.597Z,99940.44
2022-08-07T13:39:28.706Z,99930.16
2022-08-07T13:42:10.444Z,99925.03
2022-08-07T13:44:40.668Z,99924.75
2022-08-07T13:47:10.571Z,99934.75
2022-08-07T13:50:35.197Z,99927.66
2022-08-07T13:52:46.894Z,99924.69
2022-08-07T13:55:28.702Z,99926.41
2022-08-07T13:58:28.026Z,99920.88
2022-08-07T14:01:10.731Z,99916.66
2022-08-07T14:04:07.731Z,99916.81
2022-08-07T14:07:00.851Z,99916.19
2022-08-07T14:10:12.350Z,99908.53
2022-08-07T14:12:28.200Z,99912.19
2022-08-07T14:15:01.552Z,99904.31
2022-08-07T14:18:12.196Z,99901.50
2022-08-07T14:20:43.149Z,99904.69
2022-08-07T14:23:31.497Z,99897.00
2022-08-07T14:26:28.456Z,99894.97
2022-08-07T14:29:08.486Z,99891.41
2022-08-07T14:31:43.439Z,99890.69
2022-08-07T14:34:27.266Z,99893.94
2022-08-07T14:37:03.658Z,99894.47
2022-08-07T14:40:18.045Z,99893.69
2022-08-07T14:42:32.320Z,99878.34
2022-08-07T14:45:21.855Z,99878.28
2022-08-07T14:47:53.076Z,99879.28
2022-08-07T14:50:28.335Z,99881.72
2022-08-07T14:53:07.878Z,99888.50
2022-08-07T14:55:47.904Z,99878.13
2022-08-07T14:58:36.601Z,99873.28
2022-08-07T15:01:21.326Z,99877.72
2022-08-07T15:03:53.311Z,99876.09
2022-08-07T15:06:28.610Z,99879.06
2022-08-07T15:09:02.817Z,99876.88
2022-08-07T15:12:08.139Z,99883.97
2022-08-07T15:14:56.109Z,99873.38
2022-08-07T15:17:54.525Z,99879.16
2022-08-07T15:25:02.097Z,99866.69
2022-08-07T15:26:59.243Z,99866.69
2022-08-07T15:30:08.843Z,99870.38
2022-08-07T15:32:39.424Z,99870.72
2022-08-07T15:35:14.480Z,99866.44
2022-08-07T15:38:17.886Z,99864.38
2022-08-07T15:41:00.430Z,99865.50
2022-08-07T15:44:02.208Z,99866.88
2022-08-07T15:52:30.562Z,99844.78
2022-08-07T15:55:04.427Z,99849.97
2022-08-07T15:57:39.974Z,99845.06
2022-08-07T16:00:36.878Z,99850.69
2022-08-07T16:03:20.961Z,99841.25
2022-08-07T16:06:12.370Z,99850.56
2022-08-07T16:08:45.669Z,99846.28
2022-08-07T16:11:26.915Z,99845.06
2022-08-07T16:14:22.301Z,99840.41
2022-08-07T16:16:57.547Z,99840.16
2022-08-07T16:19:59.238Z,99842.09
2022-08-07T16:22:38.964Z,99839.31
2022-08-07T16:25:54.692Z,99841.25
2022-08-07T16:30:08.698Z,99837.03
2022-08-07T16:31:51.545Z,99842.78
2022-08-07T16:34:39.407Z,99836.75
2022-08-07T16:38:05.527Z,99848.50
2022-08-07T16:40:23.011Z,99849.38
2022-08-07T16:43:01.600Z,99846.63
2022-08-07T16:46:47.620Z,99849.31
2022-08-07T16:50:28.932Z,99847.50
2022-08-07T16:52:41.749Z,99845.28
2022-08-07T16:54:54.509Z,99847.94
2022-08-07T16:58:01.929Z,99849.47
2022-08-07T17:00:29.867Z,99852.19
2022-08-07T17:03:09.774Z,99857.03
2022-08-07T17:06:19.698Z,99838.72
2022-08-07T17:09:09.787Z,99855.09
2022-08-07T17:12:01.243Z,99848.47
2022-08-07T17:17:44.219Z,99850.81
2022-08-07T17:20:21.462Z,99849.94
2022-08-07T17:22:58.474Z,99846.94
2022-08-07T17:25:47.846Z,99837.72
2022-08-07T17:28:25.228Z,99846.25
2022-08-07T17:31:15.930Z,99853.81
2022-08-07T17:34:15.314Z,99845.22
2022-08-07T17:36:57.779Z,99841.22
2022-08-07T17:39:57.950Z,99844.34
2022-08-07T17:42:58.501Z,99847.03
2022-08-07T17:45:32.076Z,99853.72
2022-08-07T17:48:06.646Z,99849.31
2022-08-07T17:51:03.405Z,99855.13
2022-08-07T17:54:00.407Z,99850.41
2022-08-07T17:56:33.878Z,99849.22
2022-08-07T17:59:05.517Z,99854.59
2022-08-07T18:01:43.604Z,99854.16
2022-08-07T18:04:30.866Z,99863.81
2022-08-07T18:07:24.645Z,99867.16
2022-08-07T18:10:10.385Z,99862.69
2022-08-07T18:13:15.271Z,99865.97
2022-08-07T18:15:57.023Z,99864.31
2022-08-07T18:18:45.696Z,99876.44
2022-08-07T18:21:42.064Z,99872.53
2022-08-07T18:24:32.974Z,99872.41
2022-08-07T18:27:25.874Z,99883.63
2022-08-07T18:30:31.206Z,99883.16
2022-08-07T18:33:22.462Z,99877.44
2022-08-07T18:36:16.722Z,99881.47
2022-08-07T18:38:57.159Z,99880.63
2022-08-07T18:41:45.769Z,99879.16
2022-08-07T18:44:27.848Z,99891.25
2022-08-07T18:47:02.264Z,99889.31
2022-08-07T18:50:31.693Z,99887.81
2022-08-07T18:55:41.912Z,99888.56
2022-08-07T18:58:31.407Z,99896.88
2022-08-07T19:01:06.836Z,99896.72
2022-08-07T19:03:41.644Z,99899.69
2022-08-07T19:06:22.584Z,99909.50
2022-08-07T19:09:09.438Z,99908.78
2022-08-07T19:12:05.443Z,99907.91
2022-08-07T19:14:42.979Z,99914.41
2022-08-07T19:18:01.757Z,99918.94
2022-08-07T19:20:29.705Z,99919.50
2022-08-07T19:23:18.978Z,99925.00
2022-08-07T19:26:24.982Z,99926.56
2022-08-07T19:30:56.703Z,99928.88
2022-08-07T19:32:05.351Z,99938.59
2022-08-07T19:34:34.428Z,99940.03
2022-08-07T19:37:17.633Z,99945.63
2022-08-07T19:39:57.867Z,99945.94
2022-08-07T19:42:31.564Z,99952.56
2022-08-07T19:45:08.437Z,99954.75
2022-08-07T19:47:42.074Z,99965.84
2022-08-07T19:50:40.815Z,99956.25
2022-08-07T19:53:01.106Z,99962.13
2022-08-07T19:55:57.473Z,99969.72
2022-08-07T19:58:29.223Z,99971.22
2022-08-07T20:00:58.485Z,99970.59
2022-08-07T20:03:34.581Z,99965.78
2022-08-07T20:06:06.005Z,99962.56
2022-08-07T20:08:36.976Z,99967.16
2022-08-07T20:11:10.171Z,99964.78
2022-08-07T20:13:43.324Z,99968.56
2022-08-07T20:16:32.350Z,99961.84
2022-08-07T20:19:05.726Z,99957.41
2022-08-07T20:21:41.830Z,99960.19
2022-08-07T20:24:19.184Z,99965.97
2022-08-07T20:26:50.208Z,99964.75
2022-08-07T20:29:48.906Z,99964.44
2022-08-07T20:32:22.114Z,99971.66
2022-08-07T20:34:54.922Z,99974.31
2022-08-07T20:37:25.684Z,99972.94
2022-08-07T20:40:03.265Z,99982.72
2022-08-07T20:42:34.540Z,99974.50
2022-08-07T20:46:24.951Z,99973.44
2022-08-07T20:47:58.195Z,99980.19
2022-08-07T20:50:30.608Z,99980.06
2022-08-07T20:52:59.630Z,99979.63
2022-08-07T20:55:28.410Z,99974.53
2022-08-07T20:58:11.819Z,99966.84
2022-08-07T21:00:58.542Z,99970.63
2022-08-07T21:03:28.660Z,99977.31
2022-08-07T21:06:21.738Z,99976.84
2022-08-07T21:09:00.870Z,99972.59
2022-08-07T21:11:46.036Z,99986.16
2022-08-07T21:14:33.817Z,99988.25
2022-08-07T21:18:00.362Z,99987.44
2022-08-07T21:20:05.215Z,99987.94
2022-08-07T21:22:39.936Z,99990.91
2022-08-07T21:25:18.181Z,99991.44
2022-08-07T21:27:53.556Z,99990.88
2022-08-07T21:30:24.960Z,99987.53
2022-08-07T21:33:02.091Z,99992.41
2022-08-07T21:36:04.849Z,99993.44
2022-08-07T21:38:29.558Z,99993.75
2022-08-07T21:41:00.610Z,99996.63
2022-08-07T21:43:47.371Z,100007.13
2022-08-07T21:46:32.132Z,100004.69
2022-08-07T21:49:15.059Z,100002.03
2022-08-07T21:52:03.602Z,100003.03
2022-08-07T21:54:39.474Z,100003.97
2022-08-07T21:57:31.584Z,100004.88
2022-08-07T22:00:22.287Z,100014.59
2022-08-07T22:02:56.069Z,100017.13
2022-08-07T22:05:44.768Z,100017.31
2022-08-07T22:08:18.507Z,100014.84
2022-08-07T22:10:51.861Z,100023.84
2022-08-07T22:13:24.359Z,100022.25
2022-08-07T22:16:43.305Z,100026.16
2022-08-07T22:19:08.362Z,100020.78
2022-08-07T22:22:02.355Z,100017.03
2022-08-07T22:24:34.230Z,100021.00
2022-08-07T22:27:07.602Z,100024.00
2022-08-07T22:29:48.360Z,100029.50
2022-08-07T22:32:24.629Z,100029.38
2022-08-07T22:34:54.336Z,100024.06
2022-08-07T22:38:01.762Z,100028.72
2022-08-07T22:40:19.969Z,100034.44
2022-08-07T22:42:51.071Z,100022.31
2022-08-07T22:46:21.741Z,100022.56
2022-08-07T22:48:54.797Z,100019.13
2022-08-07T22:51:36.454Z,100032.69
2022-08-07T22:54:16.601Z,100027.84
2022-08-07T22:56:52.245Z,100031.63
2022-08-07T22:59:32.965Z,100038.91
2022-08-07T23:02:08.251Z,100026.53
2022-08-07T23:05:21.896Z,100038.16
2022-08-07T23:07:52.770Z,100049.66
2022-08-07T23:10:39.652Z,100036.50
2022-08-07T23:13:29.421Z,100043.78
2022-08-07T23:16:43.287Z,100051.09
2022-08-07T23:19:13.948Z,100047.66
2022-08-07T23:21:50.402Z,100038.06
2022-08-07T23:24:31.224Z,100048.72
2022-08-07T23:27:07.770Z,100047.03
2022-08-07T23:30:39.682Z,100046.41
2022-08-07T23:34:34.211Z,100045.72
2022-08-07T23:36:04.724Z,100047.69
2022-08-07T23:38:42.381Z,100040.97
2022-08-07T23:41:20.788Z,100044.50
2022-08-07T23:44:00.350Z,100046.41
2022-08-07T23:46:37.789Z,100047.13
2022-08-07T23:49:16.447Z,100050.78
2022-08-07T23:53:01.038Z,100051.81
2022-08-07T23:54:46.114Z,100047.56
2022-08-07T23:57:24.485Z,100050.41
